Time;durP1;ratioP1;P1;durP2;ratioP2;P2;SDS_P1;SDS_P2;PMS_P1;PMS_P2;Temp;Humidity;BMP_temperature;BMP_pressure;BME280_temperature;BME280_humidity;BME280_pressure;Samples;Min_cycle;Max_cycle;Signal;HPM_P1;HPM_P2
2024/02/09 00:00:17;;;;;;;0.20;0.20;;;;;;;9.13;100.00;96842.00;5031983;28;20045;-59
2024/02/09 00:02:47;;;;;;;0.30;0.30;;;;;;;9.15;100.00;96840.63;5039873;28;20313;-59
2024/02/09 00:05:15;;;;;;;0.25;0.25;;;;;;;9.12;100.00;96840.44;5032031;28;20041;-59
2024/02/09 00:07:45;;;;;;;0.20;0.20;;;;;;;9.14;100.00;96831.03;5042056;28;20055;-59
2024/02/09 00:10:13;;;;;;;0.22;0.22;;;;;;;9.27;100.00;96832.97;5019707;28;20041;-59
2024/02/09 00:12:41;;;;;;;0.25;0.25;;;;;;;9.26;100.00;96831.38;5043148;28;20057;-59
2024/02/09 00:15:09;;;;;;;0.30;0.30;;;;;;;9.39;100.00;96821.03;5040241;28;20553;-59
2024/02/09 00:17:36;;;;;;;0.30;0.30;;;;;;;9.39;100.00;96829.84;5019038;28;20060;-59
2024/02/09 00:20:07;;;;;;;0.30;0.30;;;;;;;9.38;100.00;96827.44;5047663;28;20045;-59
2024/02/09 00:22:36;;;;;;;0.20;0.20;;;;;;;9.42;100.00;96818.53;5041873;28;20045;-59
2024/02/09 00:25:04;;;;;;;0.30;0.30;;;;;;;9.35;100.00;96817.34;5039862;28;20075;-59
2024/02/09 00:27:32;;;;;;;0.20;0.20;;;;;;;9.42;100.00;96823.09;5017760;28;20048;-59
2024/02/09 00:29:59;;;;;;;0.20;0.20;;;;;;;9.38;100.00;96811.41;5036620;28;20395;-59
2024/02/09 00:32:26;;;;;;;0.25;0.25;;;;;;;9.35;100.00;96812.00;5017578;28;20072;-59
2024/02/09 00:34:56;;;;;;;0.30;0.30;;;;;;;9.35;100.00;96806.66;5019152;28;20037;-59
2024/02/09 00:37:26;;;;;;;0.28;0.28;;;;;;;9.30;100.00;96812.88;5038057;28;20041;-58
2024/02/09 00:39:53;;;;;;;0.20;0.20;;;;;;;9.28;100.00;96802.50;5034935;28;20427;-59
2024/02/09 00:42:20;;;;;;;0.20;0.20;;;;;;;9.24;100.00;96806.03;5021498;28;20123;-59
2024/02/09 00:44:48;;;;;;;0.30;0.30;;;;;;;9.31;100.00;96809.13;5038561;28;20091;-59
2024/02/09 00:47:15;;;;;;;0.20;0.20;;;;;;;9.31;100.00;96806.44;5043079;28;20534;-58
2024/02/09 00:49:44;;;;;;;0.30;0.30;;;;;;;9.34;100.00;96802.41;5039491;28;20396;-58
2024/02/09 00:52:11;;;;;;;0.20;0.20;;;;;;;9.35;100.00;96801.31;5040226;28;20488;-58
2024/02/09 00:54:40;;;;;;;0.30;0.30;;;;;;;9.41;100.00;96794.78;5041574;28;20208;-58
2024/02/09 00:57:08;;;;;;;0.30;0.30;;;;;;;9.36;100.00;96798.34;5021324;28;20141;-59
2024/02/09 00:59:38;;;;;;;0.20;0.20;;;;;;;9.32;100.00;96793.88;5036143;28;21301;-58
2024/02/09 01:02:06;;;;;;;0.30;0.30;;;;;;;9.40;100.00;96782.50;5041188;28;20124;-58
2024/02/09 01:04:34;;;;;;;0.30;0.30;;;;;;;9.44;100.00;96778.16;5041057;28;20044;-59
2024/02/09 01:07:03;;;;;;;0.20;0.20;;;;;;;9.43;100.00;96776.56;5040586;28;20588;-58
2024/02/09 01:09:32;;;;;;;0.20;0.20;;;;;;;9.38;100.00;96773.97;5040258;28;20440;-58
2024/02/09 01:12:02;;;;;;;0.20;0.20;;;;;;;9.41;100.00;96771.53;5042154;28;20068;-59
2024/02/09 02:45:11;;;;;;;0.30;0.30;;;;;;;9.26;100.00;96659.50;5030547;28;20041;-59
2024/02/09 02:47:40;;;;;;;0.22;0.22;;;;;;;9.18;100.00;96668.22;5039811;28;20561;-58
2024/02/09 03:06:38;;;;;;;0.30;0.30;;;;;;;9.06;100.00;96652.66;5031717;28;20135;-58
2024/02/09 03:09:05;;;;;;;0.30;0.30;;;;;;;9.00;100.00;96651.97;5022490;28;20068;-59
2024/02/09 03:11:32;;;;;;;0.15;0.15;;;;;;;9.02;100.00;96655.13;5033637;28;20083;-59
2024/02/09 03:14:02;;;;;;;0.20;0.20;;;;;;;9.02;100.00;96659.69;5037223;28;20637;-59
2024/02/09 03:16:30;;;;;;;0.20;0.20;;;;;;;9.02;100.00;96649.00;5033130;28;20049;-59
2024/02/09 03:18:57;;;;;;;0.30;0.30;;;;;;;8.98;100.00;96653.34;5041249;28;20087;-59
2024/02/09 03:21:27;;;;;;;0.20;0.20;;;;;;;8.89;100.00;96653.25;5014924;28;20049;-59
2024/02/09 03:23:56;;;;;;;0.20;0.20;;;;;;;8.91;100.00;96655.59;5037875;28;20136;-59
2024/02/09 03:26:24;;;;;;;0.30;0.30;;;;;;;8.92;100.00;96646.53;5023667;28;20055;-59
2024/02/09 03:28:51;;;;;;;0.20;0.20;;;;;;;8.94;100.00;96649.69;5023956;28;20065;-59
2024/02/09 03:31:18;;;;;;;0.30;0.30;;;;;;;8.83;100.00;96636.50;5034041;28;20056;-59
2024/02/09 03:33:45;;;;;;;0.20;0.20;;;;;;;8.84;100.00;96643.44;5037149;28;20738;-58
2024/02/09 03:36:12;;;;;;;0.20;0.20;;;;;;;8.84;100.00;96637.31;5038804;28;20057;-58
2024/02/09 03:38:41;;;;;;;0.30;0.30;;;;;;;8.81;100.00;96649.38;5040429;28;20102;-59
2024/02/09 03:41:10;;;;;;;0.20;0.20;;;;;;;8.86;100.00;96643.13;5040038;28;20123;-59
2024/02/09 03:43:37;;;;;;;0.22;0.22;;;;;;;8.89;100.00;96639.91;5035971;28;20033;-59
2024/02/09 03:46:05;;;;;;;0.20;0.20;;;;;;;8.89;100.00;96633.75;5020801;28;20088;-59
2024/02/09 03:48:32;;;;;;;0.30;0.30;;;;;;;8.92;100.00;96622.47;5017620;28;20583;-58
2024/02/09 03:51:01;;;;;;;0.20;0.20;;;;;;;8.93;100.00;96635.53;5038524;28;20052;-59
2024/02/09 03:53:33;;;;;;;0.30;0.30;;;;;;;8.85;100.00;96629.00;5020758;28;20063;-59
2024/02/09 03:56:03;;;;;;;0.30;0.30;;;;;;;8.90;100.00;96630.00;5040136;28;20045;-59
2024/02/09 03:58:32;;;;;;;0.20;0.20;;;;;;;9.01;100.00;96615.34;5041078;28;20060;-59
2024/02/09 04:01:02;;;;;;;0.30;0.30;;;;;;;8.96;100.00;96620.78;5036143;28;20044;-59
2024/02/09 04:03:30;;;;;;;0.30;0.30;;;;;;;8.95;100.00;96611.19;5038100;28;20057;-59
2024/02/09 04:05:58;;;;;;;0.25;0.25;;;;;;;9.03;100.00;96613.19;5037747;28;20145;-58
2024/02/09 04:08:25;;;;;;;0.30;0.30;;;;;;;8.92;100.00;96622.47;5039048;28;20056;-59
2024/02/09 04:10:52;;;;;;;0.30;0.30;;;;;;;8.97;100.00;96609.03;5018988;28;20371;-59
2024/02/09 04:13:19;;;;;;;0.20;0.20;;;;;;;8.94;100.00;96615.75;5036606;28;20514;-58
2024/02/09 04:15:48;;;;;;;0.20;0.20;;;;;;;8.99;100.00;96612.22;5038806;28;20044;-58
2024/02/09 04:18:15;;;;;;;0.30;0.30;;;;;;;8.97;100.00;96606.38;5033338;28;20049;-58
2024/02/09 04:20:42;;;;;;;0.20;0.20;;;;;;;8.89;100.00;96610.50;5041814;28;20036;-59
2024/02/09 04:23:10;;;;;;;0.30;0.30;;;;;;;8.95;100.00;96611.19;5045032;28;20103;-59
2024/02/09 04:25:37;;;;;;;0.30;0.30;;;;;;;9.00;100.00;96601.22;5042057;28;20048;-59
2024/02/09 04:28:05;;;;;;;0.20;0.20;;;;;;;9.07;100.00;96598.94;5008291;28;20444;-59
2024/02/09 04:30:32;;;;;;;0.20;0.20;;;;;;;9.06;100.00;96596.56;5038009;28;20061;-59
2024/02/09 04:33:01;;;;;;;0.30;0.30;;;;;;;9.01;100.00;96591.31;5027474;28;20053;-59
2024/02/09 04:35:28;;;;;;;0.25;0.25;;;;;;;8.99;100.00;96598.84;5039204;28;20045;-59
2024/02/09 04:37:55;;;;;;;0.20;0.20;;;;;;;9.02;100.00;96598.25;5041208;28;20065;-59
2024/02/09 04:40:23;;;;;;;0.30;0.30;;;;;;;8.99;100.00;96601.53;5002076;28;20049;-59
2024/02/09 04:42:50;;;;;;;0.20;0.20;;;;;;;9.00;100.00;96603.88;5043905;28;20045;-59
2024/02/09 04:45:17;;;;;;;0.30;0.30;;;;;;;9.03;100.00;96599.81;5040688;28;20037;-59
2024/02/09 04:47:44;;;;;;;0.22;0.22;;;;;;;9.12;100.00;96599.94;5041370;28;21223;-59
2024/02/09 04:50:13;;;;;;;0.20;0.20;;;;;;;9.01;100.00;96593.97;5017674;28;20044;-59
2024/02/09 04:52:40;;;;;;;0.20;0.20;;;;;;;8.99;100.00;96586.28;5038551;28;20048;-59
2024/02/09 04:55:10;;;;;;;0.20;0.20;;;;;;;9.00;100.00;96587.06;5038661;28;20581;-58
2024/02/09 04:57:37;;;;;;;0.30;0.30;;;;;;;9.02;100.00;96584.91;5023790;28;20119;-59
2024/02/09 05:00:06;;;;;;;0.20;0.20;;;;;;;9.06;100.00;96580.53;5026229;28;20128;-59
2024/02/09 05:02:34;;;;;;;0.30;0.30;;;;;;;9.03;100.00;96579.22;5039473;28;20117;-59
2024/02/09 05:05:02;;;;;;;0.30;0.30;;;;;;;9.12;100.00;96581.22;5005521;28;20052;-59
2024/02/09 05:07:30;;;;;;;0.20;0.20;;;;;;;9.08;100.00;96573.00;5024444;28;20143;-59
2024/02/09 05:09:58;;;;;;;0.30;0.30;;;;;;;9.11;100.00;96582.31;5037311;28;20125;-59
2024/02/09 05:12:31;;;;;;;0.30;0.30;;;;;;;9.17;100.00;96579.25;5026355;28;20045;-59
2024/02/09 05:15:00;;;;;;;0.30;0.30;;;;;;;9.10;100.00;96570.03;5040677;28;20045;-58
2024/02/09 05:17:27;;;;;;;0.20;0.20;;;;;;;9.07;100.00;96580.22;5026380;28;20503;-60
2024/02/09 05:19:57;;;;;;;0.20;0.20;;;;;;;9.10;100.00;96578.06;5038018;28;20048;-59
2024/02/09 05:22:27;;;;;;;0.30;0.30;;;;;;;9.11;100.00;96579.63;5043600;28;20044;-59
2024/02/09 05:24:56;;;;;;;0.20;0.20;;;;;;;9.06;100.00;96575.19;5019500;28;20140;-59
2024/02/09 05:27:23;;;;;;;0.30;0.30;;;;;;;9.05;100.00;96574.38;5024473;28;20412;-59
2024/02/09 05:29:50;;;;;;;0.30;0.30;;;;;;;9.06;100.00;96581.34;5042310;28;20055;-59
2024/02/09 05:32:17;;;;;;;0.20;0.20;;;;;;;9.09;100.00;96579.94;5023397;28;20056;-58
2024/02/09 05:34:45;;;;;;;0.30;0.30;;;;;;;9.22;100.00;96576.47;5024879;28;20048;-59
2024/02/09 05:37:15;;;;;;;0.30;0.30;;;;;;;9.13;100.00;96569.44;5023776;28;20281;-59
2024/02/09 05:39:44;;;;;;;0.20;0.20;;;;;;;9.11;100.00;96572.44;5040519;28;20033;-59
2024/02/09 05:42:13;;;;;;;0.30;0.30;;;;;;;9.07;100.00;96574.09;5041710;28;20037;-58
2024/02/09 05:44:40;;;;;;;0.30;0.30;;;;;;;9.03;100.00;96581.13;5025046;28;20041;-59
2024/02/09 05:47:07;;;;;;;0.20;0.20;;;;;;;9.08;100.00;96586.38;5026239;28;20658;-59
2024/02/09 05:49:37;;;;;;;0.20;0.20;;;;;;;9.06;100.00;96591.22;5040073;28;20057;-59
2024/02/09 05:52:07;;;;;;;0.20;0.20;;;;;;;9.09;100.00;96584.50;5032193;28;20045;-59
2024/02/09 05:54:34;;;;;;;0.20;0.20;;;;;;;9.19;100.00;96587.75;5034911;28;20437;-59
2024/02/09 05:57:01;;;;;;;0.28;0.28;;;;;;;9.15;100.00;96589.44;5039319;28;20045;-59
2024/02/09 05:59:30;;;;;;;0.20;0.20;;;;;;;9.29;100.00;96578.75;5039947;28;20491;-59
2024/02/09 06:01:58;;;;;;;0.20;0.20;;;;;;;9.24;100.00;96582.31;5043282;28;20044;-59
2024/02/09 06:04:26;;;;;;;0.30;0.30;;;;;;;9.32;100.00;96572.00;5024785;28;20496;-59
2024/02/09 06:06:54;;;;;;;0.30;0.30;;;;;;;9.28;100.00;96583.31;5042161;28;20037;-59
2024/02/09 06:09:21;;;;;;;0.30;0.30;;;;;;;9.29;100.00;96578.75;5040191;28;20033;-59
2024/02/09 06:11:48;;;;;;;0.20;0.20;;;;;;;9.33;100.00;96584.28;5041813;28;20554;-59
2024/02/09 06:14:16;;;;;;;0.30;0.30;;;;;;;9.31;100.00;96575.75;5040413;28;20060;-59
2024/02/09 06:16:47;;;;;;;0.20;0.20;;;;;;;9.32;100.00;96567.47;5009755;28;20506;-59
2024/02/09 06:19:14;;;;;;;0.20;0.20;;;;;;;9.39;100.00;96578.53;5039153;28;20038;-60
2024/02/09 06:21:41;;;;;;;0.20;0.20;;;;;;;9.32;100.00;96572.00;5022942;28;20103;-59
2024/02/09 06:24:08;;;;;;;0.25;0.25;;;;;;;9.35;100.00;96572.19;5024101;28;20059;-59
2024/02/09 06:26:35;;;;;;;0.20;0.20;;;;;;;9.40;100.00;96579.31;5041305;28;20049;-59
2024/02/09 06:29:03;;;;;;;0.30;0.30;;;;;;;9.49;100.00;96572.19;5039288;28;20143;-59
2024/02/09 06:31:31;;;;;;;0.30;0.30;;;;;;;9.55;100.00;96570.97;5039336;28;20045;-60
2024/02/09 06:34:01;;;;;;;0.30;0.30;;;;;;;9.45;100.00;96569.31;5025572;28;20056;-59
2024/02/09 06:36:29;;;;;;;0.32;0.32;;;;;;;9.50;100.00;96569.19;5032849;28;20083;-59
2024/02/09 06:38:56;;;;;;;0.30;0.30;;;;;;;9.48;100.00;96581.28;5040789;28;20052;-59
2024/02/09 06:41:23;;;;;;;0.30;0.30;;;;;;;9.54;100.00;96577.44;5037774;28;20049;-59
2024/02/09 06:43:51;;;;;;;0.30;0.30;;;;;;;9.57;100.00;96571.47;5007120;28;20048;-59
2024/02/09 06:46:19;;;;;;;0.20;0.20;;;;;;;9.63;100.00;96567.59;5038186;28;20080;-59
2024/02/09 06:48:46;;;;;;;0.30;0.30;;;;;;;9.74;100.00;96567.38;5040795;28;20071;-59
2024/02/09 06:51:18;;;;;;;0.20;0.20;;;;;;;9.70;100.00;96567.19;5035542;28;20133;-59
2024/02/09 06:53:46;;;;;;;0.30;0.30;;;;;;;9.71;100.00;96553.53;5035366;28;20041;-59
2024/02/09 06:56:13;;;;;;;0.30;0.30;;;;;;;9.80;100.00;96550.13;5024481;28;20041;-59
2024/02/09 06:58:40;;;;;;;0.20;0.20;;;;;;;9.72;100.00;96555.09;5039498;28;20045;-59
2024/02/09 07:01:09;;;;;;;0.20;0.20;;;;;;;9.77;100.00;96542.72;5037232;28;20045;-59
2024/02/09 07:03:36;;;;;;;0.20;0.20;;;;;;;9.70;100.00;96551.91;5022016;28;20514;-59
2024/02/09 07:06:04;;;;;;;0.30;0.30;;;;;;;9.74;100.00;96570.84;5035467;28;20052;-59
2024/02/09 07:08:39;;;;;;;0.20;0.20;;;;;;;9.72;100.00;96579.16;5032294;28;20053;-59
2024/02/09 07:11:07;;;;;;;0.20;0.20;;;;;;;9.84;100.00;96572.50;5033595;28;20056;-59
2024/02/09 07:13:35;;;;;;;0.20;0.20;;;;;;;9.88;100.00;96579.63;5035282;28;20063;-59
2024/02/09 07:16:04;;;;;;;0.20;0.20;;;;;;;9.85;100.00;96572.19;5022583;28;20044;-59
2024/02/09 07:18:33;;;;;;;0.20;0.20;;;;;;;9.80;100.00;96561.59;5040336;28;20520;-60
2024/02/09 07:21:00;;;;;;;0.20;0.20;;;;;;;9.79;100.00;96559.25;5040964;28;20491;-59
2024/02/09 07:23:27;;;;;;;0.20;0.20;;;;;;;9.82;100.00;96554.06;5043744;28;20047;-59
2024/02/09 07:25:56;;;;;;;0.20;0.20;;;;;;;9.87;100.00;96569.22;5034684;28;20086;-59
2024/02/09 07:28:24;;;;;;;0.22;0.22;;;;;;;9.94;100.00;96556.22;5021221;28;20045;-59
2024/02/09 07:30:51;;;;;;;0.20;0.20;;;;;;;9.92;100.00;96564.53;5035762;28;21205;-60
2024/02/09 07:33:19;;;;;;;0.20;0.20;;;;;;;9.95;100.00;96565.81;5030571;28;20053;-60
2024/02/09 07:35:46;;;;;;;0.25;0.25;;;;;;;10.02;100.00;96574.22;5034853;28;20043;-58
2024/02/09 07:38:13;;;;;;;0.20;0.20;;;;;;;10.07;100.00;96573.31;5039418;28;20063;-57
2024/02/09 07:40:40;;;;;;;0.22;0.22;;;;;;;10.07;100.00;96576.78;5039832;28;20935;-58
2024/02/09 07:43:09;;;;;;;0.20;0.20;;;;;;;10.07;100.00;96576.00;5021046;28;20441;-58
2024/02/09 07:45:37;;;;;;;0.28;0.28;;;;;;;10.06;100.00;96564.50;5035078;28;20056;-60
2024/02/09 07:48:05;;;;;;;0.20;0.20;;;;;;;10.07;100.00;96566.06;5023685;28;20063;-57
2024/02/09 07:50:34;;;;;;;0.10;0.10;;;;;;;10.14;100.00;96555.72;5015057;28;20050;-59
2024/02/09 07:53:02;;;;;;;0.20;0.20;;;;;;;10.15;100.00;96562.66;5041235;28;20132;-58
2024/02/09 07:55:29;;;;;;;0.20;0.20;;;;;;;10.21;100.00;96559.84;5021589;28;20045;-59
2024/02/09 07:57:56;;;;;;;0.20;0.20;;;;;;;10.18;100.00;96560.47;5039255;28;20126;-58
2024/02/09 08:00:25;;;;;;;0.20;0.20;;;;;;;10.18;100.00;96557.78;5036402;28;20037;-58
2024/02/09 08:02:52;;;;;;;0.20;0.20;;;;;;;10.26;100.00;96570.44;5022628;28;20175;-59
2024/02/09 08:05:19;;;;;;;0.22;0.22;;;;;;;10.31;100.00;96563.13;5039327;28;20107;-59
2024/02/09 08:07:46;;;;;;;0.20;0.20;;;;;;;10.23;100.00;96568.38;5037149;28;20056;-57
2024/02/09 08:10:14;;;;;;;0.20;0.20;;;;;;;10.31;100.00;96571.16;5025771;28;20045;-58
2024/02/09 08:12:41;;;;;;;0.17;0.17;;;;;;;10.34;100.00;96565.19;5040627;28;20041;-58
2024/02/09 08:15:09;;;;;;;0.28;0.28;;;;;;;10.34;100.00;96567.06;5036607;28;20056;-57
2024/02/09 08:17:45;;;;;;;0.20;0.20;;;;;;;10.36;100.00;96568.34;5026001;28;20041;-59
2024/02/09 08:20:14;;;;;;;0.20;0.20;;;;;;;10.48;100.00;96558.94;5035515;28;20563;-59
2024/02/09 08:22:44;;;;;;;0.15;0.15;;;;;;;10.39;100.00;96556.25;5037862;28;20527;-59
2024/02/09 08:25:11;;;;;;;0.20;0.20;;;;;;;10.41;100.00;96563.94;5033827;28;20423;-59
2024/02/09 08:27:38;;;;;;;0.20;0.20;;;;;;;10.46;100.00;96567.31;5015842;28;20052;-59
2024/02/09 08:30:08;;;;;;;0.20;0.20;;;;;;;10.51;100.00;96556.47;5022206;28;20132;-58
2024/02/09 08:32:35;;;;;;;0.10;0.10;;;;;;;10.54;100.00;96563.88;5035331;28;20045;-59
2024/02/09 08:35:08;;;;;;;0.20;0.20;;;;;;;10.47;100.00;96554.72;5038720;28;20049;-59
2024/02/09 08:37:36;;;;;;;0.20;0.20;;;;;;;10.48;100.00;96551.72;5022681;28;20099;-59
2024/02/09 08:40:04;;;;;;;0.30;0.30;;;;;;;10.52;100.00;96550.00;5039856;28;20041;-59
2024/02/09 08:42:33;;;;;;;0.20;0.20;;;;;;;10.56;100.00;96556.34;5031998;28;20059;-59
2024/02/09 08:45:01;;;;;;;0.20;0.20;;;;;;;10.63;100.00;96568.50;5036941;28;20065;-59
2024/02/09 08:47:29;;;;;;;0.20;0.20;;;;;;;10.67;100.00;96556.06;5039478;28;20125;-59
2024/02/09 08:49:58;;;;;;;0.20;0.20;;;;;;;10.84;100.00;96550.00;5017278;28;20064;-59
2024/02/09 08:52:26;;;;;;;0.20;0.20;;;;;;;10.91;100.00;96551.13;5038479;28;20048;-58
2024/02/09 08:54:53;;;;;;;0.20;0.20;;;;;;;10.95;100.00;96544.03;5035228;28;20052;-59
2024/02/09 08:57:21;;;;;;;0.20;0.20;;;;;;;10.94;100.00;96553.19;5036219;28;20053;-59
2024/02/09 08:59:49;;;;;;;0.20;0.20;;;;;;;10.96;100.00;96548.31;5021340;28;20053;-58
2024/02/09 09:02:16;;;;;;;0.20;0.20;;;;;;;11.01;100.00;96550.84;5018419;28;20049;-58
2024/02/09 09:04:46;;;;;;;0.20;0.20;;;;;;;11.19;100.00;96556.28;5038121;28;20037;-58
2024/02/09 09:07:13;;;;;;;0.30;0.30;;;;;;;11.17;100.00;96547.75;5039844;28;20181;-58
2024/02/09 09:09:42;;;;;;;0.20;0.20;;;;;;;11.11;100.00;96549.00;5037918;28;20049;-58
2024/02/09 09:12:09;;;;;;;0.20;0.20;;;;;;;11.12;100.00;96555.94;5043974;28;20119;-57
2024/02/09 09:14:38;;;;;;;0.20;0.20;;;;;;;11.12;100.00;96550.56;5021677;28;20049;-58
2024/02/09 09:17:05;;;;;;;0.10;0.10;;;;;;;10.96;100.00;96552.91;5039227;28;20045;-58
2024/02/09 09:19:32;;;;;;;0.30;0.30;;;;;;;11.00;100.00;96556.53;5018005;28;20405;-58
2024/02/09 09:21:59;;;;;;;0.20;0.20;;;;;;;10.99;100.00;96557.63;5040904;28;20045;-58
2024/02/09 09:24:26;;;;;;;0.13;0.13;;;;;;;10.97;100.00;96557.94;5036976;28;20049;-59
2024/02/09 09:26:55;;;;;;;0.15;0.15;;;;;;;11.00;100.00;96551.94;5023342;28;20508;-58
2024/02/09 09:29:23;;;;;;;0.20;0.20;;;;;;;11.05;100.00;96556.38;5038827;28;20059;-58
2024/02/09 09:31:51;;;;;;;0.20;0.20;;;;;;;11.04;100.00;96554.81;5038569;28;20382;-59
2024/02/09 09:34:18;;;;;;;0.20;0.20;;;;;;;11.01;100.00;96553.53;5042404;28;20049;-59
2024/02/09 09:36:46;;;;;;;0.20;0.20;;;;;;;11.07;100.00;96562.22;5042423;28;20490;-58
2024/02/09 09:39:13;;;;;;;0.20;0.20;;;;;;;11.04;100.00;96562.06;5041909;28;20041;-58
2024/02/09 09:41:41;;;;;;;0.20;0.20;;;;;;;11.00;100.00;96568.03;5019697;28;20038;-58
2024/02/09 09:44:10;;;;;;;0.20;0.20;;;;;;;11.00;100.00;96559.19;5019564;28;20111;-61
2024/02/09 09:46:41;;;;;;;0.20;0.20;;;;;;;11.13;100.00;96546.78;5034050;28;20752;-59
2024/02/09 09:49:09;;;;;;;0.20;0.20;;;;;;;11.23;100.00;96546.50;5040164;28;20140;-58
2024/02/09 09:51:37;;;;;;;0.20;0.20;;;;;;;11.13;100.00;96552.94;5018014;28;20041;-59
2024/02/09 09:54:05;;;;;;;0.20;0.20;;;;;;;11.12;100.00;96555.94;5038142;28;20048;-59
2024/02/09 09:56:35;;;;;;;0.20;0.20;;;;;;;11.18;100.00;96557.34;5033542;28;20075;-59
2024/02/09 09:59:03;;;;;;;0.10;0.10;;;;;;;11.21;100.00;96551.41;5004965;28;20041;-59
2024/02/09 10:01:32;;;;;;;0.22;0.22;;;;;;;11.41;100.00;96553.50;5024127;28;20734;-60
2024/02/09 10:04:01;;;;;;;0.23;0.23;;;;;;;11.66;100.00;96545.78;5039470;28;20146;-59
2024/02/09 10:06:28;;;;;;;0.10;0.10;;;;;;;11.73;100.00;96538.06;5038896;28;20040;-59
2024/02/09 10:08:55;;;;;;;0.20;0.20;;;;;;;11.90;100.00;96541.88;5037743;28;20041;-59
2024/02/09 10:11:22;;;;;;;0.10;0.10;;;;;;;11.80;100.00;96549.09;5037046;28;20087;-59
2024/02/09 10:13:51;;;;;;;0.20;0.20;;;;;;;11.94;100.00;96548.19;5021747;28;20492;-59
2024/02/09 10:16:19;;;;;;;0.20;0.20;;;;;;;11.84;100.00;96538.53;5037861;28;20099;-59
2024/02/09 10:18:48;;;;;;;0.20;0.20;;;;;;;12.16;100.00;96523.06;5039478;28;20069;-60
2024/02/09 10:21:15;;;;;;;0.20;0.20;;;;;;;12.39;100.00;96547.84;5018736;28;20415;-58
2024/02/09 10:23:46;;;;;;;0.20;0.20;;;;;;;12.16;100.00;96549.94;5036647;28;20057;-58
2024/02/09 10:26:14;;;;;;;0.20;0.20;;;;;;;11.98;100.00;96541.06;5022178;28;20045;-60
2024/02/09 10:28:41;;;;;;;0.20;0.20;;;;;;;11.96;100.00;96536.03;4999840;28;20059;-59
2024/02/09 10:31:08;;;;;;;0.20;0.20;;;;;;;12.22;100.00;96544.06;5031525;28;20041;-59
2024/02/09 10:33:38;;;;;;;0.20;0.20;;;;;;;12.14;100.00;96550.22;5038849;28;20041;-59
2024/02/09 10:36:11;;;;;;;0.10;0.10;;;;;;;12.16;100.00;96550.72;5030008;28;20053;-58
2024/02/09 10:38:38;;;;;;;0.10;0.10;;;;;;;11.98;100.00;96559.88;5037102;28;20049;-58
2024/02/09 10:41:06;;;;;;;0.15;0.15;;;;;;;12.07;100.00;96555.28;5034196;28;20041;-58
2024/02/09 10:43:34;;;;;;;0.10;0.10;;;;;;;12.24;100.00;96562.53;5032176;28;20049;-58
2024/02/09 10:46:02;;;;;;;0.20;0.20;;;;;;;12.13;100.00;96556.72;5035342;28;20571;-58
2024/02/09 10:48:34;;;;;;;0.10;0.10;;;;;;;12.16;100.00;96564.13;5019705;28;20813;-58
2024/02/09 10:51:05;;;;;;;0.20;0.20;;;;;;;12.22;100.00;96552.13;5021265;28;20628;-59
2024/02/09 10:53:35;;;;;;;0.13;0.13;;;;;;;12.32;100.00;96569.00;5035192;28;20133;-59
2024/02/09 10:56:05;;;;;;;0.20;0.20;;;;;;;12.15;100.00;96549.13;5033867;28;20052;-59
2024/02/09 10:58:35;;;;;;;0.10;0.10;;;;;;;12.30;100.00;96562.06;5018995;28;20040;-58
2024/02/09 11:01:04;;;;;;;0.20;0.20;;;;;;;12.37;100.00;96552.72;5036078;28;20112;-59
2024/02/09 11:03:31;;;;;;;0.10;0.10;;;;;;;12.46;100.00;96558.88;5039882;28;20044;-59
2024/02/09 11:06:02;;;;;;;0.10;0.10;;;;;;;12.45;100.00;96558.06;5037484;28;20052;-59
2024/02/09 11:08:29;;;;;;;0.20;0.20;;;;;;;12.48;100.00;96553.94;5037600;28;20049;-58
2024/02/09 11:11:01;;;;;;;0.20;0.20;;;;;;;12.51;100.00;96556.03;5021667;28;20056;-58
2024/02/09 11:13:28;;;;;;;0.20;0.20;;;;;;;12.47;100.00;96547.78;5032510;28;20041;-58
2024/02/09 11:15:57;;;;;;;0.20;0.20;;;;;;;12.42;100.00;96541.81;5019374;28;20219;-58
2024/02/09 11:18:30;;;;;;;0.20;0.20;;;;;;;12.40;100.00;96528.69;5036995;28;20114;-58
2024/02/09 11:21:00;;;;;;;0.20;0.20;;;;;;;12.21;100.00;96536.34;5036360;28;20348;-59
2024/02/09 11:23:28;;;;;;;0.20;0.20;;;;;;;12.33;100.00;96549.09;5033687;28;20041;-58
2024/02/09 11:25:58;;;;;;;0.20;0.20;;;;;;;12.22;100.00;96532.53;5019496;28;20042;-59
2024/02/09 11:28:27;;;;;;;0.20;0.20;;;;;;;12.34;100.00;96548.00;5035609;28;20048;-59
2024/02/09 11:30:56;;;;;;;0.20;0.20;;;;;;;12.38;100.00;96543.56;5020172;28;20439;-59
2024/02/09 11:33:23;;;;;;;0.10;0.10;;;;;;;12.43;100.00;96532.63;5034692;28;20056;-59
2024/02/09 11:35:51;;;;;;;0.10;0.10;;;;;;;12.27;100.00;96535.84;5038541;28;20099;-59
2024/02/09 11:38:21;;;;;;;0.20;0.20;;;;;;;12.11;100.00;96542.81;5036486;28;20045;-58
2024/02/09 11:40:49;;;;;;;0.10;0.10;;;;;;;12.17;100.00;96536.16;4997906;28;20046;-59
2024/02/09 11:43:17;;;;;;;0.10;0.10;;;;;;;12.22;100.00;96533.31;5006110;28;20098;-59
2024/02/09 11:45:45;;;;;;;0.20;0.20;;;;;;;12.43;100.00;96540.69;5017115;28;20115;-59
2024/02/09 11:48:13;;;;;;;0.10;0.10;;;;;;;12.24;100.00;96536.47;5032721;28;20048;-59
2024/02/09 11:50:40;;;;;;;0.20;0.20;;;;;;;12.19;100.00;96538.53;5018674;28;20049;-59
2024/02/09 11:53:08;;;;;;;0.10;0.10;;;;;;;12.10;100.00;96525.13;5027404;28;20049;-59
2024/02/09 11:55:38;;;;;;;0.13;0.13;;;;;;;12.14;100.00;96547.53;5035531;28;20075;-59
2024/02/09 11:58:06;;;;;;;0.20;0.20;;;;;;;12.17;100.00;96540.75;5034023;28;20065;-59
2024/02/09 12:00:33;;;;;;;0.20;0.20;;;;;;;12.14;100.00;96539.50;5019311;28;20041;-59
2024/02/09 12:03:03;;;;;;;0.20;0.20;;;;;;;12.06;100.00;96540.31;5038767;28;20042;-59
2024/02/09 12:05:30;;;;;;;0.17;0.17;;;;;;;12.09;100.00;96535.06;5000464;28;20045;-59
2024/02/09 12:07:57;;;;;;;0.20;0.20;;;;;;;12.11;100.00;96536.66;5035119;28;20057;-59
2024/02/09 12:10:24;;;;;;;0.17;0.17;;;;;;;12.12;100.00;96539.00;5039123;28;20033;-59
2024/02/09 12:12:51;;;;;;;0.10;0.10;;;;;;;12.11;100.00;96537.44;5022119;28;20380;-59
2024/02/09 12:15:19;;;;;;;0.20;0.20;;;;;;;12.25;100.00;96524.63;5039627;28;20049;-59
2024/02/09 12:17:46;;;;;;;0.10;0.10;;;;;;;12.25;100.00;96532.66;5020054;28;20128;-59
2024/02/09 12:20:14;;;;;;;0.20;0.20;;;;;;;12.33;100.00;96533.78;5022876;28;20048;-59
2024/02/09 12:22:44;;;;;;;0.20;0.20;;;;;;;12.34;100.00;96535.34;5040474;28;20115;-59
2024/02/09 12:25:11;;;;;;;0.15;0.15;;;;;;;12.34;100.00;96529.19;5039429;28;20049;-58
2024/02/09 12:27:38;;;;;;;0.10;0.10;;;;;;;12.40;100.00;96530.59;5005394;28;20091;-60
2024/02/09 12:30:09;;;;;;;0.10;0.10;;;;;;;12.27;100.00;96535.06;5038496;28;20044;-59
2024/02/09 12:32:37;;;;;;;0.20;0.20;;;;;;;12.27;100.00;96546.56;5039223;28;20045;-59
2024/02/09 12:35:05;;;;;;;0.17;0.17;;;;;;;12.31;100.00;96541.38;5014784;28;20804;-59
2024/02/09 12:37:33;;;;;;;0.20;0.20;;;;;;;12.11;100.00;96545.50;5039123;28;20744;-59
2024/02/09 12:40:03;;;;;;;0.20;0.20;;;;;;;12.22;100.00;96544.06;5023771;28;20049;-59
2024/02/09 12:42:32;;;;;;;0.20;0.20;;;;;;;12.25;100.00;96542.63;5033915;28;20106;-59
2024/02/09 12:44:59;;;;;;;0.20;0.20;;;;;;;12.17;100.00;96543.44;5023686;28;20140;-59
2024/02/09 12:47:26;;;;;;;0.10;0.10;;;;;;;12.22;100.00;96554.00;5043060;28;20165;-59
2024/02/09 12:49:54;;;;;;;0.20;0.20;;;;;;;12.25;100.00;96537.25;5037335;28;20068;-59
2024/02/09 12:52:25;;;;;;;0.20;0.20;;;;;;;12.45;100.00;96551.91;5037335;28;20107;-59
2024/02/09 12:54:55;;;;;;;0.20;0.20;;;;;;;12.34;100.00;96551.47;5011043;28;20052;-59
2024/02/09 12:57:22;;;;;;;0.20;0.20;;;;;;;12.21;100.00;96555.91;5041673;28;20241;-58
2024/02/09 12:59:50;;;;;;;0.17;0.17;;;;;;;12.36;100.00;96548.47;5040672;28;20102;-57
2024/02/09 13:02:20;;;;;;;0.20;0.20;;;;;;;12.36;100.00;96543.09;5050374;28;20506;-57
2024/02/09 13:04:47;;;;;;;0.10;0.10;;;;;;;12.34;100.00;96545.31;5035993;28;20053;-58
2024/02/09 13:07:14;;;;;;;0.20;0.20;;;;;;;12.48;100.00;96545.91;5043208;28;20045;-58
2024/02/09 13:09:42;;;;;;;0.10;0.10;;;;;;;12.52;100.00;96552.22;5025086;28;20056;-58
2024/02/09 13:12:11;;;;;;;0.20;0.20;;;;;;;12.30;100.00;96545.97;5039280;28;20044;-58
2024/02/09 13:14:39;;;;;;;0.10;0.10;;;;;;;12.44;100.00;96540.38;5037216;28;20122;-58
2024/02/09 13:17:10;;;;;;;0.10;0.10;;;;;;;12.43;100.00;96535.31;5023690;28;20048;-58
2024/02/09 13:19:37;;;;;;;;;;;;;;;12.55;100.00;96538.13;5024902;28;20435;-58